Parlier, California
Current Conditions -  °F | °C
As of 1:53 PM on Friday 31 Oct 2014 (Local Time) from KFAT Reporting Station
Scattered Clouds Scattered Clouds  
Wind Chill: 75°   Ceiling: Unl
Heat Index: 75°   Visibility: 10mi
Dew Point: 50°   Wind: 5mph
Humidity: 41%   Direction: NA
Pressure: 29.8"   Gusts: NA
Location:  36.61°N, 119.52°W
Report Text: KFAT 312053Z VRB04KT 10SM FEW050 FEW120 SCT200 24/10 A2980 RMK AO2 SLP087 MTNS OBSC HZ DSNT N-E-S T02390100 58037
Loading
Personal Weather Stations






























Interactive Weather Map
Tropical Storm Tracking
New forecast layout! Learn more

10-Day Weather Forecast

Advertisements
Track Severe Weather on mobile